createdAt,value
2022-07-26T00:02:00.699Z,21.51
2022-07-26T00:07:04.505Z,21.26
2022-07-26T00:12:09.255Z,21.25
2022-07-26T00:17:14.556Z,21.11
2022-07-26T00:22:36.305Z,21.16
2022-07-26T00:27:40.037Z,20.93
2022-07-26T00:32:45.090Z,20.64
2022-07-26T00:37:49.261Z,20.64
2022-07-26T00:42:54.117Z,20.58
2022-07-26T00:47:59.102Z,20.28
2022-07-26T00:53:02.755Z,19.85
2022-07-26T00:58:06.996Z,19.78
2022-07-26T01:03:12.169Z,19.61
2022-07-26T01:08:16.041Z,19.27
2022-07-26T01:13:21.035Z,19.28
2022-07-26T01:18:26.195Z,19.15
2022-07-26T01:23:31.270Z,19.06
2022-07-26T01:28:39.058Z,18.98
2022-07-26T01:33:43.483Z,18.53
2022-07-26T01:38:48.652Z,18.31
2022-07-26T01:43:52.161Z,18.46
2022-07-26T01:48:55.799Z,18.34
2022-07-26T01:54:01.014Z,18.16
2022-07-26T01:59:04.609Z,17.99
2022-07-26T02:04:08.988Z,18.15
2022-07-26T02:09:14.321Z,17.84
2022-07-26T02:14:25.738Z,17.60
2022-07-26T02:19:32.476Z,17.54
2022-07-26T02:24:37.735Z,17.21
2022-07-26T02:29:41.715Z,17.13
2022-07-26T02:34:45.361Z,17.37
2022-07-26T02:39:50.293Z,17.24
2022-07-26T02:44:54.197Z,17.02
2022-07-26T02:49:57.849Z,16.91
2022-07-26T02:55:20.434Z,16.77
2022-07-26T03:00:25.971Z,16.72
2022-07-26T03:05:29.777Z,16.51
2022-07-26T03:10:34.757Z,16.40
2022-07-26T03:15:38.437Z,16.34
2022-07-26T03:20:42.155Z,16.24
2022-07-26T03:25:47.105Z,16.17
2022-07-26T03:30:50.840Z,15.99
2022-07-26T03:35:54.331Z,15.82
2022-07-26T03:41:00.127Z,15.99
2022-07-26T03:46:03.767Z,16.08
2022-07-26T03:51:07.779Z,16.00
2022-07-26T03:56:32.395Z,16.09
2022-07-26T04:01:36.975Z,16.09
2022-07-26T04:06:41.740Z,16.02
2022-07-26T04:11:48.762Z,15.98
2022-07-26T04:16:52.550Z,16.07
2022-07-26T04:21:56.283Z,16.20
2022-07-26T04:27:01.324Z,16.31
2022-07-26T04:32:05.100Z,16.35
2022-07-26T04:37:08.618Z,16.48
2022-07-26T04:42:13.530Z,16.42
2022-07-26T04:47:17.199Z,16.49
2022-07-26T04:52:21.063Z,16.61
2022-07-26T04:57:26.065Z,16.71
2022-07-26T05:02:29.936Z,16.83
2022-07-26T05:07:41.091Z,17.03
2022-07-26T05:12:46.609Z,17.12
2022-07-26T05:17:50.069Z,17.29
2022-07-26T05:22:53.829Z,17.42
2022-07-26T05:27:58.791Z,17.78
2022-07-26T05:33:02.585Z,18.12
2022-07-26T05:38:06.524Z,18.17
2022-07-26T05:43:11.529Z,18.43
2022-07-26T05:48:15.195Z,18.41
2022-07-26T05:53:18.782Z,18.78
2022-07-26T05:58:23.883Z,19.23
2022-07-26T06:03:27.623Z,19.47
2022-07-26T06:08:31.518Z,19.26
2022-07-26T06:13:36.622Z,19.73
2022-07-26T06:18:40.240Z,20.61
2022-07-26T06:23:43.694Z,23.09
2022-07-26T06:28:50.469Z,25.48
2022-07-26T06:33:53.956Z,26.73
2022-07-26T06:38:57.575Z,26.98
2022-07-26T06:44:02.918Z,26.99
2022-07-26T06:49:07.153Z,27.10
2022-07-26T06:54:11.377Z,27.74
2022-07-26T06:59:16.997Z,27.54
2022-07-26T07:04:20.653Z,28.01
2022-07-26T07:09:24.694Z,28.41
2022-07-26T07:14:30.662Z,27.09
2022-07-26T07:19:37.256Z,26.80
2022-07-26T07:24:42.384Z,27.12
2022-07-26T07:29:47.714Z,26.53
2022-07-26T07:34:51.437Z,26.75
2022-07-26T07:39:55.301Z,26.65
2022-07-26T07:45:01.918Z,26.49
2022-07-26T07:50:06.492Z,27.00
2022-07-26T07:55:36.643Z,27.01
2022-07-26T08:00:36.042Z,26.98
2022-07-26T08:05:40.862Z,27.22
2022-07-26T08:10:51.953Z,26.65
2022-07-26T08:15:58.073Z,26.60
2022-07-26T08:21:04.614Z,26.91
2022-07-26T08:26:08.682Z,26.42
2022-07-26T08:31:13.822Z,26.99
2022-07-26T08:36:18.371Z,27.04
2022-07-26T08:41:23.298Z,27.70
2022-07-26T08:46:28.854Z,26.75
2022-07-26T08:51:33.117Z,24.97
2022-07-26T08:56:38.357Z,24.09
2022-07-26T09:01:57.190Z,25.60
2022-07-26T09:07:03.782Z,26.67
2022-07-26T09:12:18.961Z,27.85
2022-07-26T09:17:26.041Z,27.08
2022-07-26T09:22:29.859Z,27.56
2022-07-26T09:27:37.402Z,28.07
2022-07-26T09:32:42.317Z,29.00
2022-07-26T09:37:47.032Z,28.79
2022-07-26T09:42:58.536Z,27.43
2022-07-26T09:48:04.717Z,27.62
2022-07-26T09:53:09.806Z,26.74
2022-07-26T09:58:14.274Z,26.64
2022-07-26T10:03:19.691Z,25.88
2022-07-26T10:08:23.510Z,26.25
2022-07-26T10:13:30.338Z,25.59
2022-07-26T10:18:50.166Z,27.65
2022-07-26T10:23:57.971Z,27.79
2022-07-26T10:29:27.419Z,26.48
2022-07-26T10:34:34.559Z,25.95
2022-07-26T10:39:39.405Z,25.67
2022-07-26T10:44:45.344Z,27.27
2022-07-26T10:49:58.994Z,26.49
2022-07-26T10:55:11.491Z,26.06
2022-07-26T11:00:24.240Z,27.47
2022-07-26T11:05:33.812Z,27.13
2022-07-26T11:10:39.910Z,26.87
2022-07-26T11:15:46.365Z,27.91
2022-07-26T11:20:55.280Z,26.21
2022-07-26T11:26:14.413Z,25.92
2022-07-26T11:31:20.032Z,25.78
2022-07-26T11:36:39.509Z,25.55
2022-07-26T11:41:44.558Z,24.76
2022-07-26T11:46:48.903Z,24.86
2022-07-26T11:51:55.959Z,24.79
2022-07-26T11:57:01.355Z,24.18
2022-07-26T12:02:07.349Z,24.51
2022-07-26T12:07:15.033Z,24.06
2022-07-26T12:12:23.706Z,24.74
2022-07-26T12:17:35.102Z,25.39
2022-07-26T12:22:41.498Z,25.72
2022-07-26T12:27:47.585Z,25.20
2022-07-26T12:32:54.502Z,25.90
2022-07-26T12:37:59.500Z,25.70
2022-07-26T12:43:03.739Z,25.00
2022-07-26T12:48:11.041Z,25.09
2022-07-26T12:53:15.871Z,24.89
2022-07-26T12:58:19.372Z,25.08
2022-07-26T13:03:23.025Z,25.69
2022-07-26T13:08:27.835Z,25.24
2022-07-26T13:13:31.409Z,25.18
2022-07-26T13:18:34.910Z,24.61
2022-07-26T13:23:40.661Z,25.18
2022-07-26T13:28:44.461Z,25.12
2022-07-26T13:33:53.058Z,25.66
2022-07-26T13:38:58.225Z,25.33
2022-07-26T13:44:01.778Z,25.20
2022-07-26T13:49:07.140Z,25.09
2022-07-26T13:54:13.479Z,25.41
2022-07-26T13:59:17.508Z,25.44
2022-07-26T14:04:22.215Z,25.07
2022-07-26T14:09:27.552Z,25.06
2022-07-26T14:14:31.059Z,25.13
2022-07-26T14:19:36.694Z,24.50
2022-07-26T14:24:41.881Z,24.44
2022-07-26T14:29:46.427Z,23.87
2022-07-26T14:34:50.077Z,24.25
2022-07-26T14:39:55.093Z,24.46
2022-07-26T14:44:58.677Z,25.01
2022-07-26T14:50:06.489Z,25.41
2022-07-26T14:55:13.205Z,25.54
2022-07-26T15:00:18.611Z,25.67
2022-07-26T15:05:23.415Z,25.89
2022-07-26T15:10:31.362Z,25.69
2022-07-26T15:15:35.056Z,25.43
2022-07-26T15:20:40.707Z,25.26
2022-07-26T15:25:48.750Z,25.21
2022-07-26T15:30:52.896Z,25.32
2022-07-26T15:35:56.645Z,25.00
2022-07-26T15:41:01.567Z,24.51
2022-07-26T15:46:06.210Z,24.87
2022-07-26T15:51:11.699Z,24.53
2022-07-26T15:56:17.176Z,24.54
2022-07-26T16:01:20.936Z,24.13
2022-07-26T16:06:24.636Z,22.90
2022-07-26T16:11:30.176Z,22.67
2022-07-26T16:16:34.086Z,22.63
2022-07-26T16:21:38.304Z,22.57
2022-07-26T16:26:43.998Z,21.88
2022-07-26T16:31:48.440Z,21.77
2022-07-26T16:36:51.967Z,22.05
2022-07-26T16:41:57.101Z,21.91
2022-07-26T16:47:01.096Z,21.81
2022-07-26T16:52:05.880Z,21.69
2022-07-26T16:57:11.242Z,21.69
2022-07-26T17:02:15.011Z,21.41
2022-07-26T17:07:26.404Z,21.55
2022-07-26T17:12:31.876Z,21.34
2022-07-26T17:17:35.431Z,21.12
2022-07-26T17:22:39.407Z,20.80
2022-07-26T17:27:44.705Z,21.08
2022-07-26T17:32:48.679Z,20.94
2022-07-26T17:37:55.571Z,20.90
2022-07-26T17:43:01.407Z,20.77
2022-07-26T17:48:06.503Z,21.11
2022-07-26T17:53:10.509Z,21.15
2022-07-26T17:58:15.562Z,21.18
2022-07-26T18:03:20.264Z,21.26
2022-07-26T18:08:27.233Z,20.71
2022-07-26T18:13:32.509Z,20.88
2022-07-26T18:18:36.420Z,20.59
2022-07-26T18:23:54.635Z,20.81
2022-07-26T18:29:04.800Z,21.01
2022-07-26T18:34:08.471Z,20.60
2022-07-26T18:39:13.541Z,20.53
2022-07-26T18:44:19.542Z,20.58
2022-07-26T18:49:30.703Z,20.64
2022-07-26T18:54:34.673Z,20.26
2022-07-26T18:59:39.805Z,20.49
2022-07-26T19:04:43.416Z,19.94
2022-07-26T19:09:46.810Z,19.62
2022-07-26T19:14:51.796Z,19.91
2022-07-26T19:19:56.204Z,19.51
2022-07-26T19:25:00.815Z,19.14
2022-07-26T19:30:06.720Z,19.29
2022-07-26T19:35:10.924Z,18.74
2022-07-26T19:40:14.461Z,18.76
2022-07-26T19:45:19.406Z,18.75
2022-07-26T19:50:22.933Z,18.79
2022-07-26T19:55:26.483Z,18.23
2022-07-26T20:00:31.591Z,18.05
2022-07-26T20:05:35.191Z,18.02
2022-07-26T20:10:38.706Z,17.61
2022-07-26T20:15:44.245Z,17.38
2022-07-26T20:20:47.821Z,17.37
2022-07-26T20:25:51.456Z,17.59
2022-07-26T20:30:56.539Z,17.54
2022-07-26T20:36:00.128Z,17.24
2022-07-26T20:41:03.690Z,17.44
2022-07-26T20:46:10.873Z,17.35
2022-07-26T20:51:14.483Z,17.20
2022-07-26T20:56:18.616Z,16.55
2022-07-26T21:01:24.387Z,16.88
2022-07-26T21:06:29.173Z,16.84
2022-07-26T21:11:33.418Z,16.96
2022-07-26T21:16:39.089Z,16.88
2022-07-26T21:21:42.717Z,16.58
2022-07-26T21:26:46.150Z,16.44
2022-07-26T21:31:51.140Z,16.60
2022-07-26T21:36:54.986Z,16.81
2022-07-26T21:41:58.548Z,17.02
2022-07-26T21:47:05.906Z,17.23
2022-07-26T21:52:09.861Z,17.43
2022-07-26T21:57:13.507Z,17.38
2022-07-26T22:02:19.934Z,17.38
2022-07-26T22:07:25.390Z,16.82
2022-07-26T22:12:30.074Z,17.07
2022-07-26T22:17:35.036Z,17.22
2022-07-26T22:22:39.129Z,17.01
2022-07-26T22:27:42.653Z,16.98
2022-07-26T22:32:47.756Z,16.85
2022-07-26T22:37:51.695Z,17.18
2022-07-26T22:42:58.756Z,17.27
2022-07-26T22:48:04.861Z,17.23
2022-07-26T22:53:08.296Z,17.06
2022-07-26T22:58:12.219Z,17.24
2022-07-26T23:03:20.090Z,17.25
2022-07-26T23:13:52.075Z,17.45
2022-07-26T23:19:04.134Z,17.51
2022-07-26T23:24:08.367Z,17.63
2022-07-26T23:29:12.324Z,17.65
2022-07-26T23:34:17.646Z,17.70
2022-07-26T23:39:22.306Z,17.72
2022-07-26T23:44:25.982Z,17.72
2022-07-26T23:49:31.139Z,17.53
2022-07-26T23:54:34.778Z,17.51
2022-07-26T23:59:38.423Z,17.43
